createdAt,value
2023-01-01T00:01:47.854Z,63.89
2023-01-01T00:03:53.972Z,63.40
2023-01-01T00:05:55.461Z,63.48
2023-01-01T00:08:04.344Z,62.97
2023-01-01T00:10:25.519Z,63.22
2023-01-01T00:12:27.123Z,62.88
2023-01-01T00:14:28.612Z,62.66
2023-01-01T00:16:30.133Z,62.33
2023-01-01T00:18:31.619Z,63.92
2023-01-01T00:20:35.487Z,62.67
2023-01-01T00:22:55.508Z,62.59
2023-01-01T00:24:57.640Z,62.21
2023-01-01T00:26:59.165Z,62.06
2023-01-01T00:29:01.314Z,61.82
2023-01-01T00:31:10.465Z,61.81
2023-01-01T00:33:11.991Z,61.65
2023-01-01T00:35:13.462Z,61.84
2023-01-01T00:37:18.332Z,61.88
2023-01-01T00:39:19.942Z,61.60
2023-01-01T00:41:22.230Z,60.86
2023-01-01T00:43:23.788Z,61.66
2023-01-01T00:45:25.323Z,62.25
2023-01-01T00:47:26.767Z,60.75
2023-01-01T00:49:28.237Z,60.91
2023-01-01T00:51:36.575Z,60.36
2023-01-01T00:53:38.604Z,63.04
2023-01-01T00:55:41.096Z,60.59
2023-01-01T00:57:42.568Z,60.12
2023-01-01T00:59:44.132Z,60.78
2023-01-01T01:01:45.658Z,60.40
2023-01-01T01:03:47.156Z,60.56
2023-01-01T01:05:48.597Z,61.04
2023-01-01T01:07:50.063Z,60.38
2023-01-01T01:09:51.537Z,59.75
2023-01-01T01:12:17.712Z,60.36
2023-01-01T01:14:15.016Z,60.18
2023-01-01T01:16:29.612Z,65.01
2023-01-01T01:18:31.153Z,61.11
2023-01-01T01:20:32.655Z,60.78
2023-01-01T01:22:34.839Z,60.44
2023-01-01T01:24:36.308Z,60.69
2023-01-01T01:26:37.821Z,60.64
2023-01-01T01:28:45.378Z,61.41
2023-01-01T01:30:50.517Z,63.07
2023-01-01T01:32:52.066Z,61.47
2023-01-01T01:34:53.529Z,60.36
2023-01-01T01:36:55.561Z,60.50
2023-01-01T01:38:57.193Z,61.38
2023-01-01T01:40:58.860Z,61.44
2023-01-01T01:43:00.386Z,63.12
2023-01-01T01:45:02.872Z,61.33
2023-01-01T01:47:04.437Z,61.64
2023-01-01T01:49:17.804Z,61.00
2023-01-01T01:51:24.665Z,61.06
2023-01-01T01:53:29.932Z,60.77
2023-01-01T01:55:35.159Z,62.19
2023-01-01T01:57:39.091Z,62.90
2023-01-01T01:59:47.507Z,61.59
2023-01-01T02:01:49.197Z,62.57
2023-01-01T02:04:08.653Z,61.77
2023-01-01T02:06:11.261Z,62.63
2023-01-01T02:08:15.758Z,62.83
2023-01-01T02:10:17.478Z,63.12
2023-01-01T02:12:18.975Z,65.46
2023-01-01T02:14:20.467Z,64.26
2023-01-01T02:16:32.552Z,63.52
2023-01-01T02:18:50.966Z,63.63
2023-01-01T02:21:12.600Z,64.15
2023-01-01T02:23:25.544Z,64.14
2023-01-01T02:25:51.353Z,64.05
2023-01-01T02:28:05.529Z,64.10
2023-01-01T02:30:09.105Z,64.36
2023-01-01T02:32:15.566Z,64.65
2023-01-01T02:34:21.369Z,64.44
2023-01-01T02:36:25.263Z,64.50
2023-01-01T02:38:34.987Z,64.84
2023-01-01T02:40:41.497Z,65.62
2023-01-01T02:42:43.211Z,65.94
2023-01-01T02:44:48.669Z,64.85
2023-01-01T02:46:50.154Z,65.24
2023-01-01T02:48:53.270Z,65.36
2023-01-01T02:51:01.123Z,65.69
2023-01-01T02:53:14.482Z,66.12
2023-01-01T02:55:44.594Z,67.05
2023-01-01T02:58:24.232Z,67.51
2023-01-01T03:00:31.276Z,68.22
2023-01-01T03:02:59.901Z,68.51
2023-01-01T03:05:17.315Z,68.35
2023-01-01T03:07:33.885Z,68.82
2023-01-01T03:09:59.016Z,69.20
2023-01-01T03:12:09.931Z,69.14
2023-01-01T03:14:20.897Z,69.24
2023-01-01T03:16:35.765Z,68.84
2023-01-01T03:19:10.421Z,68.59
2023-01-01T03:23:27.181Z,68.58
2023-01-01T03:25:34.111Z,68.16
2023-01-01T03:27:44.026Z,68.93
2023-01-01T03:29:49.011Z,69.17
2023-01-01T03:31:55.410Z,68.96
2023-01-01T03:34:03.907Z,69.29
2023-01-01T03:36:16.172Z,68.80
2023-01-01T03:38:34.165Z,68.70
2023-01-01T03:40:38.417Z,69.01
2023-01-01T03:42:43.933Z,70.23
2023-01-01T03:44:54.125Z,68.51
2023-01-01T03:46:56.195Z,69.79
2023-01-01T03:49:03.211Z,67.97
2023-01-01T03:51:17.623Z,67.54
2023-01-01T03:53:42.498Z,66.99
2023-01-01T03:55:55.213Z,66.95
2023-01-01T03:57:59.520Z,66.47
2023-01-01T04:00:09.618Z,66.85
2023-01-01T04:02:17.316Z,66.80
2023-01-01T04:04:19.839Z,66.62
2023-01-01T04:06:21.657Z,65.86
2023-01-01T04:08:23.436Z,65.34
2023-01-01T04:10:26.534Z,65.17
2023-01-01T04:12:30.411Z,65.25
2023-01-01T04:14:31.892Z,64.30
2023-01-01T04:16:33.465Z,65.36
2023-01-01T04:18:34.960Z,64.11
2023-01-01T04:20:36.423Z,63.96
2023-01-01T04:22:38.077Z,64.97
2023-01-01T04:24:39.537Z,64.86
2023-01-01T04:26:41.524Z,63.86
2023-01-01T04:28:43.111Z,63.71
2023-01-01T04:32:45.266Z,63.13
2023-01-01T04:34:46.704Z,62.55
2023-01-01T04:36:48.191Z,63.22
2023-01-01T04:38:49.703Z,62.40
2023-01-01T04:41:01.286Z,61.69
2023-01-01T04:43:02.750Z,61.21
2023-01-01T04:45:04.649Z,61.42
2023-01-01T04:47:06.367Z,61.18
2023-01-01T04:49:07.849Z,61.79
2023-01-01T04:51:11.193Z,61.71
2023-01-01T04:53:12.659Z,62.38
2023-01-01T04:55:14.300Z,61.99
2023-01-01T04:57:15.757Z,61.94
2023-01-01T04:59:17.251Z,61.35
2023-01-01T05:01:27.472Z,61.53
2023-01-01T05:03:29.452Z,62.20
2023-01-01T05:05:30.936Z,61.32
2023-01-01T05:07:33.370Z,60.74
2023-01-01T05:09:34.814Z,60.05
2023-01-01T05:11:36.452Z,60.84
2023-01-01T05:13:40.055Z,60.16
2023-01-01T05:15:41.500Z,60.20
2023-01-01T05:17:42.989Z,60.31
2023-01-01T05:19:44.459Z,60.69
2023-01-01T05:21:46.569Z,61.72
2023-01-01T05:23:48.126Z,61.18
2023-01-01T05:25:49.567Z,60.41
2023-01-01T05:27:51.195Z,60.71
2023-01-01T05:29:52.641Z,61.48
2023-01-01T05:31:54.118Z,60.17
2023-01-01T05:33:55.969Z,59.92
2023-01-01T05:35:57.468Z,60.60
2023-01-01T05:38:00.174Z,59.81
2023-01-01T05:40:01.730Z,59.81
2023-01-01T05:42:03.269Z,60.48
2023-01-01T05:44:06.625Z,59.20
2023-01-01T05:46:11.577Z,59.76
2023-01-01T05:48:13.083Z,59.79
2023-01-01T05:50:14.655Z,59.80
2023-01-01T05:52:17.544Z,59.68
2023-01-01T05:54:20.687Z,59.76
2023-01-01T05:56:22.847Z,60.67
2023-01-01T05:58:24.514Z,59.99
2023-01-01T06:00:25.987Z,59.90
2023-01-01T06:02:30.763Z,60.56
2023-01-01T06:04:32.343Z,59.73
2023-01-01T06:06:33.883Z,59.61
2023-01-01T06:08:35.399Z,59.97
2023-01-01T06:10:36.970Z,59.63
2023-01-01T06:12:38.433Z,59.52
2023-01-01T06:14:39.876Z,60.26
2023-01-01T06:16:42.535Z,60.44
2023-01-01T06:18:44.137Z,59.27
2023-01-01T06:20:45.617Z,59.60
2023-01-01T06:22:47.322Z,59.63
2023-01-01T06:24:48.830Z,59.37
2023-01-01T06:26:50.361Z,59.38
2023-01-01T06:28:52.647Z,59.37
2023-01-01T06:30:54.404Z,59.17
2023-01-01T06:32:55.867Z,59.99
2023-01-01T06:34:57.317Z,59.14
2023-01-01T06:37:03.083Z,58.92
2023-01-01T06:39:08.726Z,59.59
2023-01-01T06:41:12.828Z,58.77
2023-01-01T06:43:14.285Z,58.97
2023-01-01T06:45:15.828Z,59.74
2023-01-01T06:47:17.267Z,60.45
2023-01-01T06:49:18.804Z,60.31
2023-01-01T06:51:22.672Z,60.25
2023-01-01T06:53:25.776Z,60.91
2023-01-01T06:55:27.226Z,60.46
2023-01-01T06:57:28.675Z,60.70
2023-01-01T06:59:30.137Z,60.77
2023-01-01T07:01:33.587Z,61.29
2023-01-01T07:03:35.305Z,62.88
2023-01-01T07:05:36.854Z,61.76
2023-01-01T07:07:38.445Z,61.55
2023-01-01T07:09:39.985Z,61.06
2023-01-01T07:11:41.454Z,63.16
2023-01-01T07:13:42.993Z,61.31
2023-01-01T07:15:44.611Z,62.15
2023-01-01T07:17:46.100Z,61.51
2023-01-01T07:19:47.665Z,61.15
2023-01-01T07:21:54.346Z,60.38
2023-01-01T07:23:56.814Z,61.59
2023-01-01T07:25:58.902Z,60.67
2023-01-01T07:28:00.367Z,61.86
2023-01-01T07:30:01.876Z,62.54
2023-01-01T07:32:04.363Z,62.32
2023-01-01T07:34:07.331Z,62.05
2023-01-01T07:36:09.089Z,62.25
2023-01-01T07:38:10.640Z,62.81
2023-01-01T07:40:12.204Z,61.26
2023-01-01T07:42:13.665Z,61.08
2023-01-01T07:44:15.153Z,60.38
2023-01-01T07:46:18.879Z,60.60
2023-01-01T07:48:20.479Z,60.28
2023-01-01T07:50:23.472Z,60.54
2023-01-01T07:52:24.933Z,61.23
2023-01-01T07:54:26.403Z,61.83
2023-01-01T07:56:27.977Z,61.98
2023-01-01T07:58:29.452Z,62.27
2023-01-01T08:00:30.949Z,62.65
2023-01-01T08:02:32.819Z,62.53
2023-01-01T08:04:35.282Z,63.70
2023-01-01T08:06:37.795Z,62.86
2023-01-01T08:08:40.132Z,62.61
2023-01-01T08:10:41.596Z,62.75
2023-01-01T08:12:43.515Z,62.06
2023-01-01T08:14:44.952Z,62.44
2023-01-01T08:16:46.443Z,62.13
2023-01-01T08:18:47.954Z,61.67
2023-01-01T08:20:49.409Z,61.31
2023-01-01T08:22:50.910Z,61.41
2023-01-01T08:24:52.387Z,62.23
2023-01-01T08:26:53.897Z,61.76
2023-01-01T08:28:57.396Z,62.15
2023-01-01T08:31:00.257Z,62.60
2023-01-01T08:33:01.794Z,63.74
2023-01-01T08:35:04.100Z,63.24
2023-01-01T08:37:05.821Z,64.93
2023-01-01T08:39:08.189Z,64.10
2023-01-01T08:41:10.092Z,63.92
2023-01-01T08:43:11.544Z,64.84
2023-01-01T08:45:12.999Z,65.61
2023-01-01T08:47:23.143Z,62.58
2023-01-01T08:49:24.607Z,61.66
2023-01-01T08:51:26.067Z,61.66
2023-01-01T08:53:29.105Z,60.98
2023-01-01T08:55:31.392Z,60.59
2023-01-01T08:57:32.884Z,61.24
2023-01-01T08:59:34.417Z,61.17
2023-01-01T09:01:35.998Z,60.41
2023-01-01T09:03:37.664Z,62.65
2023-01-01T09:05:39.188Z,61.15
2023-01-01T09:07:40.626Z,60.80
2023-01-01T09:09:42.132Z,60.07
2023-01-01T09:11:59.125Z,59.25
2023-01-01T09:14:00.583Z,58.75
2023-01-01T09:16:02.108Z,57.43
2023-01-01T09:18:03.849Z,55.87
2023-01-01T09:20:05.898Z,53.81
2023-01-01T09:22:11.940Z,53.52
2023-01-01T09:24:13.389Z,52.76
2023-01-01T09:26:14.862Z,52.89
2023-01-01T09:28:20.440Z,52.69
2023-01-01T09:30:25.094Z,52.27
2023-01-01T09:32:26.738Z,52.71
2023-01-01T09:34:28.234Z,52.46
2023-01-01T09:36:31.983Z,52.95
2023-01-01T09:38:33.486Z,52.24
2023-01-01T09:40:51.164Z,52.76
2023-01-01T09:43:19.559Z,52.67
2023-01-01T09:45:28.661Z,53.04
2023-01-01T09:47:41.143Z,52.56
2023-01-01T09:49:46.542Z,52.99
2023-01-01T09:51:57.926Z,53.32
2023-01-01T09:54:05.268Z,54.02
2023-01-01T09:56:17.529Z,53.71
2023-01-01T09:58:24.187Z,53.63
2023-01-01T10:00:29.913Z,53.32
2023-01-01T10:02:51.461Z,53.63
2023-01-01T10:05:05.262Z,53.89
2023-01-01T10:07:21.914Z,53.09
2023-01-01T10:09:56.555Z,53.17
2023-01-01T10:12:11.702Z,53.02
2023-01-01T10:14:19.913Z,53.76
2023-01-01T10:16:39.028Z,53.44
2023-01-01T10:18:42.502Z,53.50
2023-01-01T10:21:09.380Z,54.03
2023-01-01T10:23:25.712Z,53.07
2023-01-01T10:25:33.898Z,53.88
2023-01-01T10:27:44.784Z,54.08
2023-01-01T10:29:50.247Z,54.25
2023-01-01T10:31:55.105Z,55.17
2023-01-01T10:33:57.180Z,55.00
2023-01-01T10:35:58.988Z,54.66
2023-01-01T10:38:01.738Z,55.01
2023-01-01T10:40:15.555Z,55.14
2023-01-01T10:42:17.275Z,55.95
2023-01-01T10:44:30.251Z,55.16
2023-01-01T10:46:32.617Z,55.43
2023-01-01T10:48:35.973Z,55.25
2023-01-01T10:50:52.452Z,55.86
2023-01-01T10:52:57.061Z,55.44
2023-01-01T10:54:59.961Z,55.60
2023-01-01T10:57:27.714Z,55.62
2023-01-01T10:59:38.047Z,56.07
2023-01-01T11:01:39.604Z,55.82
2023-01-01T11:04:03.993Z,55.38
2023-01-01T11:06:25.127Z,55.43
2023-01-01T11:08:29.434Z,55.00
2023-01-01T11:10:31.571Z,55.18
2023-01-01T11:15:00.069Z,55.14
2023-01-01T11:17:01.849Z,54.70
2023-01-01T11:19:08.444Z,54.89
2023-01-01T11:21:10.072Z,56.12
2023-01-01T11:23:27.105Z,55.43
2023-01-01T11:25:30.260Z,56.65
2023-01-01T11:27:31.782Z,56.51
2023-01-01T11:29:33.283Z,57.02
2023-01-01T11:31:38.823Z,57.36
2023-01-01T11:33:45.061Z,56.99
2023-01-01T11:35:50.912Z,57.67
2023-01-01T11:37:54.997Z,57.66
2023-01-01T11:39:58.500Z,57.42
2023-01-01T11:42:00.204Z,58.24
2023-01-01T11:44:01.739Z,57.89
2023-01-01T11:46:07.660Z,58.23
2023-01-01T11:48:17.664Z,57.58
2023-01-01T11:50:42.343Z,58.34
2023-01-01T11:52:46.891Z,58.60
2023-01-01T11:54:48.725Z,58.32
2023-01-01T11:56:54.661Z,59.00
2023-01-01T11:59:04.915Z,58.95
2023-01-01T12:01:06.352Z,59.96
2023-01-01T12:03:34.303Z,59.62
2023-01-01T12:06:03.637Z,59.63
2023-01-01T12:08:10.559Z,60.17
2023-01-01T12:10:23.314Z,60.03
2023-01-01T12:12:35.648Z,59.60
2023-01-01T12:14:55.496Z,60.19
2023-01-01T12:17:12.928Z,62.74
2023-01-01T12:19:20.779Z,61.74
2023-01-01T12:21:34.740Z,61.07
2023-01-01T12:23:36.719Z,61.35
2023-01-01T12:25:43.909Z,61.66
2023-01-01T12:27:58.064Z,61.98
2023-01-01T12:30:13.622Z,62.22
2023-01-01T12:32:38.413Z,62.55
2023-01-01T12:35:03.532Z,62.88
2023-01-01T12:37:35.936Z,63.08
2023-01-01T12:39:56.372Z,63.28
2023-01-01T12:42:14.320Z,63.62
2023-01-01T12:44:58.921Z,63.54
2023-01-01T12:47:06.644Z,64.19
2023-01-01T12:49:15.895Z,63.72
2023-01-01T12:51:32.211Z,64.04
2023-01-01T12:53:45.539Z,63.88
2023-01-01T12:55:56.144Z,64.38
2023-01-01T12:58:08.439Z,65.12
2023-01-01T13:00:16.429Z,64.53
2023-01-01T13:02:25.344Z,64.67
2023-01-01T13:04:27.240Z,64.50
2023-01-01T13:06:41.188Z,65.10
2023-01-01T13:08:47.598Z,65.37
2023-01-01T13:10:59.253Z,65.00
2023-01-01T13:13:01.786Z,65.63
2023-01-01T13:15:44.115Z,65.58
2023-01-01T13:17:53.148Z,66.60
2023-01-01T13:20:21.142Z,67.17
2023-01-01T13:22:28.444Z,66.63
2023-01-01T13:24:29.962Z,66.59
2023-01-01T13:26:32.083Z,66.52
2023-01-01T13:28:33.545Z,67.01
2023-01-01T13:30:38.443Z,66.82
2023-01-01T13:33:23.203Z,66.60
2023-01-01T13:35:26.909Z,67.28
2023-01-01T13:37:30.970Z,67.00
2023-01-01T13:40:24.671Z,67.28
2023-01-01T13:42:59.187Z,67.37
2023-01-01T13:45:02.341Z,67.57
2023-01-01T13:47:18.741Z,67.39
2023-01-01T13:49:55.555Z,67.43
2023-01-01T13:52:06.015Z,68.76
2023-01-01T13:54:45.698Z,68.71
2023-01-01T13:56:58.488Z,68.46
2023-01-01T13:59:26.105Z,68.94
2023-01-01T14:01:52.233Z,68.90
2023-01-01T14:03:55.981Z,69.42
2023-01-01T14:06:02.376Z,70.25
2023-01-01T14:08:08.495Z,70.05
2023-01-01T14:10:34.046Z,70.85
2023-01-01T14:12:38.338Z,70.09
2023-01-01T14:14:39.820Z,70.30
2023-01-01T14:16:41.877Z,70.67
2023-01-01T14:18:47.469Z,70.71
2023-01-01T14:20:53.530Z,71.80
2023-01-01T14:22:55.016Z,71.09
2023-01-01T14:24:56.772Z,71.80
2023-01-01T14:26:59.220Z,71.47
2023-01-01T14:29:06.071Z,72.22
2023-01-01T14:31:14.637Z,71.43
2023-01-01T14:33:24.949Z,71.76
2023-01-01T14:35:27.791Z,72.00
2023-01-01T14:37:29.317Z,72.30
2023-01-01T14:39:33.375Z,72.20
2023-01-01T14:41:37.812Z,73.42
2023-01-01T14:43:42.438Z,72.49
2023-01-01T14:45:44.250Z,73.51
2023-01-01T14:47:51.519Z,73.45
2023-01-01T14:49:54.838Z,73.45
2023-01-01T14:52:26.489Z,74.12
2023-01-01T14:54:35.829Z,74.23
2023-01-01T14:56:38.020Z,74.03
2023-01-01T14:58:40.594Z,74.53
2023-01-01T15:00:42.147Z,74.67
2023-01-01T15:02:43.737Z,74.94
2023-01-01T15:04:45.369Z,74.77
2023-01-01T15:06:56.574Z,75.33
2023-01-01T15:08:58.309Z,75.54
2023-01-01T15:11:03.292Z,75.87
2023-01-01T15:13:07.334Z,75.66
2023-01-01T15:15:40.023Z,75.83
2023-01-01T15:17:46.631Z,76.30
2023-01-01T15:20:06.797Z,76.35
2023-01-01T15:22:31.242Z,77.10
2023-01-01T15:24:33.380Z,77.03
2023-01-01T15:26:41.292Z,77.27
2023-01-01T15:28:42.823Z,78.00
2023-01-01T15:30:44.299Z,77.91
2023-01-01T15:32:45.848Z,78.54
2023-01-01T15:34:53.006Z,78.63
2023-01-01T15:36:56.409Z,78.85
2023-01-01T15:38:58.483Z,78.86
2023-01-01T15:41:21.423Z,79.12
2023-01-01T15:43:25.467Z,79.65
2023-01-01T15:45:41.054Z,79.55
2023-01-01T15:47:43.339Z,79.70
2023-01-01T15:49:44.789Z,80.59
2023-01-01T15:51:46.262Z,80.54
2023-01-01T15:54:00.651Z,80.90
2023-01-01T15:56:11.365Z,81.08
2023-01-01T15:58:18.457Z,81.74
2023-01-01T16:00:22.927Z,81.44
2023-01-01T16:02:31.664Z,81.86
2023-01-01T16:04:33.684Z,81.82
2023-01-01T16:06:44.014Z,82.33
2023-01-01T16:08:45.573Z,82.40
2023-01-01T16:10:51.223Z,82.33
2023-01-01T16:12:52.693Z,82.52
2023-01-01T16:14:54.198Z,82.69
2023-01-01T16:17:00.834Z,82.86
2023-01-01T16:19:02.676Z,83.37
2023-01-01T16:21:05.814Z,83.62
2023-01-01T16:23:10.129Z,83.68
2023-01-01T16:25:20.760Z,83.58
2023-01-01T16:27:22.250Z,83.76
2023-01-01T16:29:23.717Z,84.08
2023-01-01T16:31:28.589Z,84.01
2023-01-01T16:33:30.111Z,84.05
2023-01-01T16:35:31.564Z,84.37
2023-01-01T16:37:33.398Z,84.48
2023-01-01T16:39:34.901Z,84.85
2023-01-01T16:41:39.336Z,85.08
2023-01-01T16:43:42.330Z,85.13
2023-01-01T16:45:47.005Z,85.29
2023-01-01T16:47:48.520Z,85.55
2023-01-01T16:49:49.995Z,85.49
2023-01-01T16:51:51.455Z,85.46
2023-01-01T16:53:52.938Z,85.79
2023-01-01T16:55:54.693Z,85.77
2023-01-01T16:58:21.035Z,85.86
2023-01-01T17:00:17.743Z,85.89
2023-01-01T17:02:19.344Z,86.06
2023-01-01T17:04:20.989Z,86.41
2023-01-01T17:06:22.449Z,86.08
2023-01-01T17:08:24.058Z,86.48
2023-01-01T17:10:25.501Z,86.38
2023-01-01T17:12:26.949Z,86.44
2023-01-01T17:14:28.461Z,86.72
2023-01-01T17:16:36.236Z,86.54
2023-01-01T17:19:13.455Z,86.73
2023-01-01T17:21:10.662Z,86.47
2023-01-01T17:23:12.097Z,86.39
2023-01-01T17:25:13.610Z,86.33
2023-01-01T17:27:15.098Z,86.31
2023-01-01T17:29:16.550Z,86.69
2023-01-01T17:31:20.331Z,86.43
2023-01-01T17:33:21.802Z,86.39
2023-01-01T17:35:23.435Z,86.29
2023-01-01T17:37:25.645Z,86.40
2023-01-01T17:39:27.144Z,86.50
2023-01-01T17:41:28.639Z,86.80
2023-01-01T17:43:35.080Z,86.48
2023-01-01T17:45:36.910Z,86.68
2023-01-01T17:47:38.405Z,86.65
2023-01-01T17:49:39.964Z,86.80
2023-01-01T17:51:41.467Z,86.68
2023-01-01T17:53:43.027Z,86.69
2023-01-01T17:55:44.505Z,86.61
2023-01-01T17:57:45.981Z,86.47
2023-01-01T17:59:47.467Z,86.82
2023-01-01T18:01:49.012Z,86.52
2023-01-01T18:03:56.403Z,86.62
2023-01-01T18:05:57.918Z,86.47
2023-01-01T18:07:59.358Z,86.73
2023-01-01T18:10:00.827Z,86.54
2023-01-01T18:12:02.275Z,86.79
2023-01-01T18:14:03.951Z,86.79
2023-01-01T18:16:08.343Z,86.83
2023-01-01T18:18:09.849Z,86.71
2023-01-01T18:20:11.670Z,86.88
2023-01-01T18:22:13.636Z,86.72
2023-01-01T18:24:16.012Z,86.66
2023-01-01T18:26:18.116Z,86.77
2023-01-01T18:28:19.557Z,86.74
2023-01-01T18:30:21.127Z,86.77
2023-01-01T18:32:22.703Z,87.05
2023-01-01T18:34:24.165Z,86.82
2023-01-01T18:36:30.245Z,86.80
2023-01-01T18:38:32.017Z,86.82
2023-01-01T18:40:35.386Z,87.08
2023-01-01T18:42:46.132Z,86.77
2023-01-01T18:44:47.740Z,86.90
2023-01-01T18:47:04.166Z,87.23
2023-01-01T18:49:09.556Z,87.27
2023-01-01T18:51:29.246Z,87.18
2023-01-01T18:53:32.365Z,87.38
2023-01-01T18:55:33.867Z,87.15
2023-01-01T18:57:36.286Z,87.45
2023-01-01T18:59:37.936Z,87.24
2023-01-01T19:01:44.339Z,87.58
2023-01-01T19:03:51.259Z,87.27
2023-01-01T19:05:52.710Z,87.67
2023-01-01T19:08:06.222Z,87.55
2023-01-01T19:10:12.988Z,87.49
2023-01-01T19:12:18.484Z,87.48
2023-01-01T19:14:25.347Z,87.39
2023-01-01T19:16:30.461Z,87.51
2023-01-01T19:18:33.988Z,87.69
2023-01-01T19:20:35.517Z,87.72
2023-01-01T19:22:37.088Z,87.55
2023-01-01T19:24:43.840Z,87.75
2023-01-01T19:26:46.249Z,87.47
2023-01-01T19:29:00.644Z,87.49
2023-01-01T19:31:03.877Z,87.66
2023-01-01T19:33:05.436Z,87.70
2023-01-01T19:35:10.689Z,87.60
2023-01-01T19:37:14.932Z,87.90
2023-01-01T19:39:16.984Z,87.82
2023-01-01T19:41:18.468Z,88.12
2023-01-01T19:43:20.234Z,88.10
2023-01-01T19:45:22.165Z,88.44
2023-01-01T19:47:23.628Z,87.80
2023-01-01T19:49:25.096Z,87.71
2023-01-01T19:51:26.991Z,87.54
2023-01-01T19:53:28.475Z,87.35
2023-01-01T19:55:29.936Z,87.29
2023-01-01T19:57:31.632Z,86.88
2023-01-01T19:59:33.649Z,86.58
2023-01-01T20:01:35.744Z,86.19
2023-01-01T20:03:55.327Z,85.76
2023-01-01T20:05:58.345Z,85.15
2023-01-01T20:07:59.822Z,84.77
2023-01-01T20:10:01.344Z,84.35
2023-01-01T20:12:02.908Z,84.02
2023-01-01T20:14:04.518Z,83.57
2023-01-01T20:16:06.549Z,83.20
2023-01-01T20:18:08.025Z,82.85
2023-01-01T20:20:10.857Z,82.43
2023-01-01T20:22:13.889Z,82.28
2023-01-01T20:24:18.130Z,81.98
2023-01-01T20:26:20.741Z,81.54
2023-01-01T20:28:40.929Z,81.50
2023-01-01T20:30:42.380Z,81.08
2023-01-01T20:32:44.081Z,81.20
2023-01-01T20:34:45.771Z,80.94
2023-01-01T20:37:06.057Z,80.75
2023-01-01T20:39:07.521Z,80.72
2023-01-01T20:41:24.095Z,80.63
2023-01-01T20:43:25.547Z,80.25
2023-01-01T20:45:27.097Z,80.12
2023-01-01T20:47:28.731Z,80.35
2023-01-01T20:49:30.188Z,80.18
2023-01-01T20:51:31.681Z,80.07
2023-01-01T20:53:33.358Z,79.90
2023-01-01T20:55:34.809Z,79.99
2023-01-01T20:57:36.323Z,79.71
2023-01-01T20:59:38.697Z,80.31
2023-01-01T21:01:40.579Z,80.36
2023-01-01T21:03:42.129Z,80.10
2023-01-01T21:05:43.586Z,80.47
2023-01-01T21:07:45.095Z,80.30
2023-01-01T21:09:46.877Z,80.23
2023-01-01T21:11:48.342Z,80.49
2023-01-01T21:13:50.535Z,80.46
2023-01-01T21:15:54.489Z,80.53
2023-01-01T21:17:56.158Z,80.49
2023-01-01T21:19:58.480Z,80.48
2023-01-01T21:21:59.941Z,80.72
2023-01-01T21:24:06.906Z,80.57
2023-01-01T21:26:15.824Z,81.09
2023-01-01T21:28:17.880Z,81.07
2023-01-01T21:30:20.138Z,81.83
2023-01-01T21:32:32.869Z,82.03
2023-01-01T21:34:34.292Z,82.25
2023-01-01T21:36:35.782Z,82.70
2023-01-01T21:38:37.263Z,83.28
2023-01-01T21:40:41.515Z,83.60
2023-01-01T21:42:42.969Z,84.09
2023-01-01T21:44:44.464Z,84.41
2023-01-01T21:46:54.245Z,84.83
2023-01-01T21:49:02.781Z,85.48
2023-01-01T21:51:18.458Z,85.75
2023-01-01T21:53:22.405Z,86.67
2023-01-01T21:55:46.546Z,87.25
2023-01-01T21:57:48.020Z,87.68
2023-01-01T21:59:50.743Z,88.11
2023-01-01T22:01:54.688Z,88.75
2023-01-01T22:04:11.463Z,88.77
2023-01-01T22:06:15.212Z,89.57
2023-01-01T22:08:23.736Z,90.00
2023-01-01T22:10:37.253Z,90.61
2023-01-01T22:12:39.079Z,91.19
2023-01-01T22:14:45.845Z,91.94
2023-01-01T22:16:53.353Z,92.48
2023-01-01T22:18:55.569Z,92.34
2023-01-01T22:20:57.949Z,92.17
2023-01-01T22:23:04.960Z,91.83
2023-01-01T22:25:24.426Z,91.73
2023-01-01T22:27:29.020Z,92.13
2023-01-01T22:29:32.173Z,92.09
2023-01-01T22:31:36.200Z,92.07
2023-01-01T22:33:41.613Z,92.93
2023-01-01T22:35:43.296Z,93.25
2023-01-01T22:37:48.399Z,93.38
2023-01-01T22:39:53.903Z,93.64
2023-01-01T22:41:55.489Z,94.17
2023-01-01T22:44:02.614Z,94.46
2023-01-01T22:46:28.068Z,94.32
2023-01-01T22:48:35.028Z,94.21
2023-01-01T22:50:36.841Z,94.07
2023-01-01T22:52:38.274Z,94.01
2023-01-01T22:54:39.775Z,93.86
2023-01-01T22:56:41.296Z,93.61
2023-01-01T22:58:42.788Z,93.47
2023-01-01T23:00:44.260Z,94.01
2023-01-01T23:02:46.162Z,94.78
2023-01-01T23:04:47.648Z,95.83
2023-01-01T23:06:49.166Z,96.67
2023-01-01T23:08:51.903Z,96.35
2023-01-01T23:10:53.824Z,95.69
2023-01-01T23:12:55.262Z,94.29
2023-01-01T23:15:15.199Z,93.27
2023-01-01T23:17:16.651Z,92.79
2023-01-01T23:19:18.704Z,94.69
2023-01-01T23:21:26.845Z,96.29
2023-01-01T23:23:29.849Z,97.86
2023-01-01T23:25:31.463Z,99.02
2023-01-01T23:27:33.710Z,99.21
2023-01-01T23:29:35.664Z,99.13
2023-01-01T23:31:38.791Z,98.60
2023-01-01T23:33:41.004Z,98.52
2023-01-01T23:35:42.681Z,98.06
2023-01-01T23:37:44.434Z,97.95
2023-01-01T23:39:45.893Z,98.31
2023-01-01T23:41:47.469Z,98.97
2023-01-01T23:43:49.540Z,99.48
2023-01-01T23:45:51.532Z,99.83
2023-01-01T23:47:53.385Z,98.57
2023-01-01T23:49:54.845Z,97.34
2023-01-01T23:51:56.453Z,96.73
2023-01-01T23:53:57.937Z,96.31
2023-01-01T23:55:59.397Z,96.14
2023-01-01T23:58:00.842Z,95.64
